sensor_id;sensor_type;location;lat;lon;timestamp;P1;durP1;ratioP1;P2;durP2;ratioP2
53271;SDS011;39160;48.580;7.756;2024-02-21T00:00:55;6.15;;;2.92;;
53271;SDS011;39160;48.580;7.756;2024-02-21T00:05:46;6.53;;;2.85;;
53271;SDS011;39160;48.580;7.756;2024-02-21T00:10:36;5.35;;;3.25;;
53271;SDS011;39160;48.580;7.756;2024-02-21T00:15:27;5.13;;;2.78;;
53271;SDS011;39160;48.580;7.756;2024-02-21T00:20:18;5.05;;;2.92;;
53271;SDS011;39160;48.580;7.756;2024-02-21T00:25:08;5.00;;;2.75;;
53271;SDS011;39160;48.580;7.756;2024-02-21T00:29:59;9.77;;;3.58;;
53271;SDS011;39160;48.580;7.756;2024-02-21T00:34:50;3.28;;;2.30;;
53271;SDS011;39160;48.580;7.756;2024-02-21T00:39:40;7.35;;;2.50;;
53271;SDS011;39160;48.580;7.756;2024-02-21T00:44:32;5.07;;;2.40;;
53271;SDS011;39160;48.580;7.756;2024-02-21T00:49:23;5.07;;;2.30;;
53271;SDS011;39160;48.580;7.756;2024-02-21T00:54:13;4.88;;;2.78;;
53271;SDS011;39160;48.580;7.756;2024-02-21T00:59:04;4.93;;;2.65;;
53271;SDS011;39160;48.580;7.756;2024-02-21T01:03:55;5.80;;;2.58;;
53271;SDS011;39160;48.580;7.756;2024-02-21T01:08:49;4.00;;;3.53;;
53271;SDS011;39160;48.580;7.756;2024-02-21T01:13:39;8.38;;;2.83;;
53271;SDS011;39160;48.580;7.756;2024-02-21T01:18:30;7.78;;;2.88;;
53271;SDS011;39160;48.580;7.756;2024-02-21T01:23:21;5.22;;;2.33;;
53271;SDS011;39160;48.580;7.756;2024-02-21T01:28:11;6.03;;;2.40;;
53271;SDS011;39160;48.580;7.756;2024-02-21T01:33:02;4.18;;;1.65;;
53271;SDS011;39160;48.580;7.756;2024-02-21T01:37:53;3.88;;;2.17;;
53271;SDS011;39160;48.580;7.756;2024-02-21T01:42:44;4.32;;;2.10;;
53271;SDS011;39160;48.580;7.756;2024-02-21T01:47:35;4.55;;;2.45;;
53271;SDS011;39160;48.580;7.756;2024-02-21T01:52:27;4.00;;;2.47;;
53271;SDS011;39160;48.580;7.756;2024-02-21T01:57:19;3.47;;;1.92;;
53271;SDS011;39160;48.580;7.756;2024-02-21T02:02:10;4.47;;;2.03;;
53271;SDS011;39160;48.580;7.756;2024-02-21T02:07:01;4.07;;;2.60;;
53271;SDS011;39160;48.580;7.756;2024-02-21T02:11:53;3.75;;;2.13;;
53271;SDS011;39160;48.580;7.756;2024-02-21T02:16:46;4.13;;;2.55;;
53271;SDS011;39160;48.580;7.756;2024-02-21T02:26:31;4.20;;;2.22;;
53271;SDS011;39160;48.580;7.756;2024-02-21T02:31:22;3.65;;;2.65;;
53271;SDS011;39160;48.580;7.756;2024-02-21T02:36:12;3.10;;;2.35;;
53271;SDS011;39160;48.580;7.756;2024-02-21T02:41:03;5.78;;;2.85;;
53271;SDS011;39160;48.580;7.756;2024-02-21T02:45:53;6.90;;;2.95;;
53271;SDS011;39160;48.580;7.756;2024-02-21T02:50:45;4.63;;;2.22;;
53271;SDS011;39160;48.580;7.756;2024-02-21T02:55:36;5.05;;;3.10;;
53271;SDS011;39160;48.580;7.756;2024-02-21T03:00:27;4.32;;;2.95;;
53271;SDS011;39160;48.580;7.756;2024-02-21T03:05:18;4.45;;;2.65;;
53271;SDS011;39160;48.580;7.756;2024-02-21T03:10:10;2.90;;;2.20;;
53271;SDS011;39160;48.580;7.756;2024-02-21T03:15:01;3.58;;;2.40;;
53271;SDS011;39160;48.580;7.756;2024-02-21T03:19:52;5.30;;;2.55;;
53271;SDS011;39160;48.580;7.756;2024-02-21T03:24:44;6.88;;;2.42;;
53271;SDS011;39160;48.580;7.756;2024-02-21T03:29:34;6.32;;;3.22;;
53271;SDS011;39160;48.580;7.756;2024-02-21T03:34:25;3.13;;;2.30;;
53271;SDS011;39160;48.580;7.756;2024-02-21T03:39:16;4.60;;;2.78;;
53271;SDS011;39160;48.580;7.756;2024-02-21T03:44:06;4.18;;;2.55;;
53271;SDS011;39160;48.580;7.756;2024-02-21T03:48:57;9.73;;;2.95;;
53271;SDS011;39160;48.580;7.756;2024-02-21T03:53:47;7.80;;;2.90;;
53271;SDS011;39160;48.580;7.756;2024-02-21T03:58:39;5.60;;;2.30;;
53271;SDS011;39160;48.580;7.756;2024-02-21T04:03:30;6.50;;;2.97;;
53271;SDS011;39160;48.580;7.756;2024-02-21T04:08:21;8.20;;;2.55;;
53271;SDS011;39160;48.580;7.756;2024-02-21T04:13:12;4.93;;;2.40;;
53271;SDS011;39160;48.580;7.756;2024-02-21T04:18:03;6.03;;;2.78;;
53271;SDS011;39160;48.580;7.756;2024-02-21T04:22:53;5.18;;;2.95;;
53271;SDS011;39160;48.580;7.756;2024-02-21T04:27:44;4.15;;;3.45;;
53271;SDS011;39160;48.580;7.756;2024-02-21T04:32:35;5.53;;;2.85;;
53271;SDS011;39160;48.580;7.756;2024-02-21T04:37:26;5.80;;;3.25;;
53271;SDS011;39160;48.580;7.756;2024-02-21T04:42:16;8.60;;;3.00;;
53271;SDS011;39160;48.580;7.756;2024-02-21T04:47:07;6.32;;;3.08;;
53271;SDS011;39160;48.580;7.756;2024-02-21T04:51:58;3.17;;;2.17;;
53271;SDS011;39160;48.580;7.756;2024-02-21T04:56:49;7.15;;;3.45;;
53271;SDS011;39160;48.580;7.756;2024-02-21T05:01:40;5.70;;;2.95;;
53271;SDS011;39160;48.580;7.756;2024-02-21T05:06:30;6.15;;;3.70;;
53271;SDS011;39160;48.580;7.756;2024-02-21T05:11:21;6.13;;;2.85;;
53271;SDS011;39160;48.580;7.756;2024-02-21T05:16:12;10.25;;;2.95;;
53271;SDS011;39160;48.580;7.756;2024-02-21T05:21:03;5.57;;;2.47;;
53271;SDS011;39160;48.580;7.756;2024-02-21T05:25:54;6.35;;;2.67;;
53271;SDS011;39160;48.580;7.756;2024-02-21T05:30:45;6.50;;;4.10;;
53271;SDS011;39160;48.580;7.756;2024-02-21T05:35:35;4.05;;;2.72;;
53271;SDS011;39160;48.580;7.756;2024-02-21T05:40:26;4.03;;;2.53;;
53271;SDS011;39160;48.580;7.756;2024-02-21T05:45:17;5.00;;;3.17;;
53271;SDS011;39160;48.580;7.756;2024-02-21T05:50:08;7.47;;;2.92;;
53271;SDS011;39160;48.580;7.756;2024-02-21T05:54:59;5.53;;;3.58;;
53271;SDS011;39160;48.580;7.756;2024-02-21T05:59:50;6.40;;;2.50;;
53271;SDS011;39160;48.580;7.756;2024-02-21T06:04:41;5.88;;;2.70;;
53271;SDS011;39160;48.580;7.756;2024-02-21T06:09:32;3.38;;;2.35;;
53271;SDS011;39160;48.580;7.756;2024-02-21T06:14:23;3.95;;;2.50;;
53271;SDS011;39160;48.580;7.756;2024-02-21T06:19:13;5.57;;;2.78;;
53271;SDS011;39160;48.580;7.756;2024-02-21T06:24:04;6.18;;;3.40;;
53271;SDS011;39160;48.580;7.756;2024-02-21T06:28:56;3.78;;;2.35;;
53271;SDS011;39160;48.580;7.756;2024-02-21T06:33:49;5.82;;;2.75;;
53271;SDS011;39160;48.580;7.756;2024-02-21T06:38:40;6.78;;;2.88;;
53271;SDS011;39160;48.580;7.756;2024-02-21T06:43:30;7.03;;;2.88;;
53271;SDS011;39160;48.580;7.756;2024-02-21T06:48:21;5.43;;;2.90;;
53271;SDS011;39160;48.580;7.756;2024-02-21T06:53:12;5.82;;;3.33;;
53271;SDS011;39160;48.580;7.756;2024-02-21T06:58:03;7.32;;;2.80;;
53271;SDS011;39160;48.580;7.756;2024-02-21T07:02:53;6.57;;;3.25;;
53271;SDS011;39160;48.580;7.756;2024-02-21T07:07:44;5.40;;;3.10;;
53271;SDS011;39160;48.580;7.756;2024-02-21T07:12:34;6.35;;;2.75;;
53271;SDS011;39160;48.580;7.756;2024-02-21T07:17:27;6.07;;;3.15;;
53271;SDS011;39160;48.580;7.756;2024-02-21T07:22:17;6.18;;;3.33;;
53271;SDS011;39160;48.580;7.756;2024-02-21T07:27:08;5.57;;;3.05;;
53271;SDS011;39160;48.580;7.756;2024-02-21T07:31:58;6.40;;;3.42;;
53271;SDS011;39160;48.580;7.756;2024-02-21T07:36:49;7.65;;;3.08;;
53271;SDS011;39160;48.580;7.756;2024-02-21T07:41:40;6.97;;;3.38;;
53271;SDS011;39160;48.580;7.756;2024-02-21T07:46:33;6.95;;;3.40;;
53271;SDS011;39160;48.580;7.756;2024-02-21T07:51:27;9.00;;;3.13;;
53271;SDS011;39160;48.580;7.756;2024-02-21T07:56:18;6.05;;;3.15;;
53271;SDS011;39160;48.580;7.756;2024-02-21T08:01:09;5.97;;;2.67;;
53271;SDS011;39160;48.580;7.756;2024-02-21T08:06:00;5.35;;;2.88;;
53271;SDS011;39160;48.580;7.756;2024-02-21T08:10:52;5.80;;;2.85;;
53271;SDS011;39160;48.580;7.756;2024-02-21T08:15:43;6.53;;;2.55;;
53271;SDS011;39160;48.580;7.756;2024-02-21T08:20:34;7.13;;;2.22;;
53271;SDS011;39160;48.580;7.756;2024-02-21T08:25:24;7.78;;;2.90;;
53271;SDS011;39160;48.580;7.756;2024-02-21T08:30:15;4.25;;;2.20;;
53271;SDS011;39160;48.580;7.756;2024-02-21T08:35:06;6.05;;;2.70;;
53271;SDS011;39160;48.580;7.756;2024-02-21T08:39:57;5.15;;;2.17;;
53271;SDS011;39160;48.580;7.756;2024-02-21T08:44:48;6.85;;;2.75;;
53271;SDS011;39160;48.580;7.756;2024-02-21T08:49:39;4.05;;;2.10;;
53271;SDS011;39160;48.580;7.756;2024-02-21T08:54:29;4.90;;;2.03;;
53271;SDS011;39160;48.580;7.756;2024-02-21T08:59:20;6.65;;;2.88;;
53271;SDS011;39160;48.580;7.756;2024-02-21T09:04:14;5.15;;;2.15;;
53271;SDS011;39160;48.580;7.756;2024-02-21T09:09:05;6.47;;;2.88;;
53271;SDS011;39160;48.580;7.756;2024-02-21T09:13:58;4.80;;;2.20;;
53271;SDS011;39160;48.580;7.756;2024-02-21T09:18:48;3.15;;;1.80;;
53271;SDS011;39160;48.580;7.756;2024-02-21T09:23:39;5.90;;;2.10;;
53271;SDS011;39160;48.580;7.756;2024-02-21T09:28:30;4.60;;;2.00;;
53271;SDS011;39160;48.580;7.756;2024-02-21T09:33:21;3.83;;;2.50;;
53271;SDS011;39160;48.580;7.756;2024-02-21T09:38:11;5.65;;;2.13;;
53271;SDS011;39160;48.580;7.756;2024-02-21T09:43:02;4.28;;;1.95;;
53271;SDS011;39160;48.580;7.756;2024-02-21T09:53:15;4.75;;;1.70;;
53271;SDS011;39160;48.580;7.756;2024-02-21T09:58:09;2.95;;;1.60;;
53271;SDS011;39160;48.580;7.756;2024-02-21T10:03:01;4.40;;;1.73;;
53271;SDS011;39160;48.580;7.756;2024-02-21T10:07:57;5.15;;;1.63;;
53271;SDS011;39160;48.580;7.756;2024-02-21T10:12:51;4.20;;;2.50;;
53271;SDS011;39160;48.580;7.756;2024-02-21T10:17:44;2.65;;;1.60;;
53271;SDS011;39160;48.580;7.756;2024-02-21T10:22:35;3.33;;;1.60;;
53271;SDS011;39160;48.580;7.756;2024-02-21T10:27:29;4.60;;;2.15;;
53271;SDS011;39160;48.580;7.756;2024-02-21T10:32:20;3.72;;;1.90;;
53271;SDS011;39160;48.580;7.756;2024-02-21T10:37:12;3.97;;;1.75;;
53271;SDS011;39160;48.580;7.756;2024-02-21T10:42:03;6.40;;;1.98;;
53271;SDS011;39160;48.580;7.756;2024-02-21T10:46:54;6.10;;;1.95;;
53271;SDS011;39160;48.580;7.756;2024-02-21T10:51:46;4.05;;;2.08;;
53271;SDS011;39160;48.580;7.756;2024-02-21T10:56:38;3.85;;;1.80;;
53271;SDS011;39160;48.580;7.756;2024-02-21T11:01:31;3.38;;;1.85;;
53271;SDS011;39160;48.580;7.756;2024-02-21T11:06:22;3.15;;;1.70;;
53271;SDS011;39160;48.580;7.756;2024-02-21T11:11:14;2.60;;;1.85;;
53271;SDS011;39160;48.580;7.756;2024-02-21T11:16:11;4.90;;;2.35;;
53271;SDS011;39160;48.580;7.756;2024-02-21T11:21:02;3.90;;;2.97;;
53271;SDS011;39160;48.580;7.756;2024-02-21T11:26:06;2.35;;;1.48;;
53271;SDS011;39160;48.580;7.756;2024-02-21T11:31:07;3.45;;;1.40;;
53271;SDS011;39160;48.580;7.756;2024-02-21T11:35:59;10.05;;;2.60;;
53271;SDS011;39160;48.580;7.756;2024-02-21T11:40:49;2.85;;;1.42;;
53271;SDS011;39160;48.580;7.756;2024-02-21T11:45:40;4.60;;;1.73;;
53271;SDS011;39160;48.580;7.756;2024-02-21T11:50:31;4.40;;;1.65;;
53271;SDS011;39160;48.580;7.756;2024-02-21T11:55:29;4.97;;;2.40;;
53271;SDS011;39160;48.580;7.756;2024-02-21T12:00:20;2.38;;;1.60;;
53271;SDS011;39160;48.580;7.756;2024-02-21T12:05:11;3.58;;;1.50;;
53271;SDS011;39160;48.580;7.756;2024-02-21T12:10:08;2.53;;;1.70;;
53271;SDS011;39160;48.580;7.756;2024-02-21T12:15:02;4.03;;;2.13;;
53271;SDS011;39160;48.580;7.756;2024-02-21T12:19:56;3.97;;;1.88;;
53271;SDS011;39160;48.580;7.756;2024-02-21T12:24:47;2.70;;;1.52;;
53271;SDS011;39160;48.580;7.756;2024-02-21T12:29:38;4.13;;;1.90;;
53271;SDS011;39160;48.580;7.756;2024-02-21T12:34:28;7.72;;;1.73;;
53271;SDS011;39160;48.580;7.756;2024-02-21T12:39:21;4.82;;;2.05;;
53271;SDS011;39160;48.580;7.756;2024-02-21T12:44:12;4.38;;;2.25;;
53271;SDS011;39160;48.580;7.756;2024-02-21T12:49:03;3.67;;;2.08;;
53271;SDS011;39160;48.580;7.756;2024-02-21T12:53:54;2.63;;;1.58;;
53271;SDS011;39160;48.580;7.756;2024-02-21T12:58:45;2.55;;;1.20;;
53271;SDS011;39160;48.580;7.756;2024-02-21T13:03:36;5.88;;;1.85;;
53271;SDS011;39160;48.580;7.756;2024-02-21T13:08:28;4.53;;;1.73;;
53271;SDS011;39160;48.580;7.756;2024-02-21T13:13:18;7.93;;;1.80;;
53271;SDS011;39160;48.580;7.756;2024-02-21T13:18:09;3.63;;;2.38;;
53271;SDS011;39160;48.580;7.756;2024-02-21T13:23:00;4.53;;;1.20;;
53271;SDS011;39160;48.580;7.756;2024-02-21T13:27:51;5.45;;;1.50;;
53271;SDS011;39160;48.580;7.756;2024-02-21T13:32:42;3.17;;;1.50;;
53271;SDS011;39160;48.580;7.756;2024-02-21T13:37:33;3.50;;;1.63;;
53271;SDS011;39160;48.580;7.756;2024-02-21T13:42:24;2.70;;;1.33;;
53271;SDS011;39160;48.580;7.756;2024-02-21T13:47:17;3.10;;;1.50;;
53271;SDS011;39160;48.580;7.756;2024-02-21T13:52:08;2.47;;;1.67;;
53271;SDS011;39160;48.580;7.756;2024-02-21T13:57:01;3.17;;;1.35;;
53271;SDS011;39160;48.580;7.756;2024-02-21T14:01:52;3.55;;;1.55;;
53271;SDS011;39160;48.580;7.756;2024-02-21T14:06:43;4.63;;;1.27;;
53271;SDS011;39160;48.580;7.756;2024-02-21T14:11:34;3.20;;;1.27;;
53271;SDS011;39160;48.580;7.756;2024-02-21T14:16:25;3.08;;;1.38;;
53271;SDS011;39160;48.580;7.756;2024-02-21T14:21:16;3.72;;;1.65;;
53271;SDS011;39160;48.580;7.756;2024-02-21T14:26:06;3.97;;;1.50;;
53271;SDS011;39160;48.580;7.756;2024-02-21T14:30:57;2.92;;;1.10;;
53271;SDS011;39160;48.580;7.756;2024-02-21T14:35:48;2.78;;;1.45;;
53271;SDS011;39160;48.580;7.756;2024-02-21T14:40:38;3.30;;;1.83;;
53271;SDS011;39160;48.580;7.756;2024-02-21T14:45:29;4.47;;;1.25;;
53271;SDS011;39160;48.580;7.756;2024-02-21T14:50:19;2.47;;;1.60;;
53271;SDS011;39160;48.580;7.756;2024-02-21T14:55:12;2.58;;;1.20;;
53271;SDS011;39160;48.580;7.756;2024-02-21T15:00:06;4.07;;;1.35;;
53271;SDS011;39160;48.580;7.756;2024-02-21T15:04:58;1.65;;;0.95;;
53271;SDS011;39160;48.580;7.756;2024-02-21T15:09:49;3.10;;;1.23;;
53271;SDS011;39160;48.580;7.756;2024-02-21T15:14:41;1.65;;;0.90;;
53271;SDS011;39160;48.580;7.756;2024-02-21T15:19:33;1.83;;;1.13;;
53271;SDS011;39160;48.580;7.756;2024-02-21T15:24:24;3.83;;;1.73;;
53271;SDS011;39160;48.580;7.756;2024-02-21T15:29:15;2.55;;;1.50;;
53271;SDS011;39160;48.580;7.756;2024-02-21T15:34:06;2.25;;;1.92;;
53271;SDS011;39160;48.580;7.756;2024-02-21T15:38:57;2.95;;;1.25;;
53271;SDS011;39160;48.580;7.756;2024-02-21T15:43:49;1.95;;;1.00;;
53271;SDS011;39160;48.580;7.756;2024-02-21T15:48:40;4.82;;;1.45;;
53271;SDS011;39160;48.580;7.756;2024-02-21T15:53:34;2.55;;;1.35;;
53271;SDS011;39160;48.580;7.756;2024-02-21T15:58:25;2.50;;;1.10;;
53271;SDS011;39160;48.580;7.756;2024-02-21T16:03:19;3.30;;;1.10;;
53271;SDS011;39160;48.580;7.756;2024-02-21T16:08:11;3.92;;;1.08;;
53271;SDS011;39160;48.580;7.756;2024-02-21T16:13:02;1.58;;;1.30;;
53271;SDS011;39160;48.580;7.756;2024-02-21T16:17:53;2.40;;;1.00;;
53271;SDS011;39160;48.580;7.756;2024-02-21T16:22:44;3.55;;;1.08;;
53271;SDS011;39160;48.580;7.756;2024-02-21T16:27:35;4.85;;;1.50;;
53271;SDS011;39160;48.580;7.756;2024-02-21T16:32:27;2.28;;;1.60;;
53271;SDS011;39160;48.580;7.756;2024-02-21T16:37:20;2.00;;;1.52;;
53271;SDS011;39160;48.580;7.756;2024-02-21T16:42:11;5.25;;;2.15;;
53271;SDS011;39160;48.580;7.756;2024-02-21T16:47:03;2.42;;;1.15;;
53271;SDS011;39160;48.580;7.756;2024-02-21T16:51:54;4.43;;;1.55;;
53271;SDS011;39160;48.580;7.756;2024-02-21T16:56:45;5.25;;;1.45;;
53271;SDS011;39160;48.580;7.756;2024-02-21T17:01:35;1.50;;;1.08;;
53271;SDS011;39160;48.580;7.756;2024-02-21T17:06:30;3.93;;;1.37;;
53271;SDS011;39160;48.580;7.756;2024-02-21T17:11:21;2.40;;;1.35;;
53271;SDS011;39160;48.580;7.756;2024-02-21T17:16:12;5.13;;;1.95;;
53271;SDS011;39160;48.580;7.756;2024-02-21T17:21:03;5.80;;;1.60;;
53271;SDS011;39160;48.580;7.756;2024-02-21T17:25:54;1.67;;;1.38;;
53271;SDS011;39160;48.580;7.756;2024-02-21T17:30:44;2.35;;;1.35;;
53271;SDS011;39160;48.580;7.756;2024-02-21T17:35:35;2.65;;;1.30;;
53271;SDS011;39160;48.580;7.756;2024-02-21T17:40:26;3.40;;;1.05;;
53271;SDS011;39160;48.580;7.756;2024-02-21T17:45:17;3.00;;;1.23;;
53271;SDS011;39160;48.580;7.756;2024-02-21T17:50:08;3.40;;;1.48;;
53271;SDS011;39160;48.580;7.756;2024-02-21T17:54:59;3.15;;;1.55;;
53271;SDS011;39160;48.580;7.756;2024-02-21T17:59:50;3.53;;;1.33;;
53271;SDS011;39160;48.580;7.756;2024-02-21T18:04:41;2.80;;;1.20;;
53271;SDS011;39160;48.580;7.756;2024-02-21T18:09:31;2.03;;;1.15;;
53271;SDS011;39160;48.580;7.756;2024-02-21T18:14:24;2.75;;;1.73;;
53271;SDS011;39160;48.580;7.756;2024-02-21T18:19:15;3.88;;;1.55;;
53271;SDS011;39160;48.580;7.756;2024-02-21T18:24:09;2.85;;;1.90;;
53271;SDS011;39160;48.580;7.756;2024-02-21T18:29:00;3.50;;;1.42;;
53271;SDS011;39160;48.580;7.756;2024-02-21T18:33:50;3.72;;;1.25;;
53271;SDS011;39160;48.580;7.756;2024-02-21T18:38:41;2.38;;;1.90;;
53271;SDS011;39160;48.580;7.756;2024-02-21T18:43:32;3.70;;;1.20;;
53271;SDS011;39160;48.580;7.756;2024-02-21T18:48:24;6.97;;;1.75;;
53271;SDS011;39160;48.580;7.756;2024-02-21T18:53:14;1.95;;;1.30;;
53271;SDS011;39160;48.580;7.756;2024-02-21T18:58:05;2.55;;;1.50;;
53271;SDS011;39160;48.580;7.756;2024-02-21T19:02:56;1.83;;;1.60;;
53271;SDS011;39160;48.580;7.756;2024-02-21T19:07:47;3.13;;;1.77;;
53271;SDS011;39160;48.580;7.756;2024-02-21T19:12:39;4.20;;;1.90;;
53271;SDS011;39160;48.580;7.756;2024-02-21T19:17:30;5.20;;;2.33;;
53271;SDS011;39160;48.580;7.756;2024-02-21T19:22:21;2.92;;;1.73;;
53271;SDS011;39160;48.580;7.756;2024-02-21T19:27:14;5.50;;;2.28;;
53271;SDS011;39160;48.580;7.756;2024-02-21T19:32:05;4.90;;;2.22;;
53271;SDS011;39160;48.580;7.756;2024-02-21T19:36:56;2.67;;;1.65;;
53271;SDS011;39160;48.580;7.756;2024-02-21T19:41:47;3.95;;;2.05;;
53271;SDS011;39160;48.580;7.756;2024-02-21T19:46:38;3.42;;;2.03;;
53271;SDS011;39160;48.580;7.756;2024-02-21T19:51:29;4.93;;;2.22;;
53271;SDS011;39160;48.580;7.756;2024-02-21T19:56:20;3.28;;;2.08;;
53271;SDS011;39160;48.580;7.756;2024-02-21T20:01:11;4.25;;;1.98;;
53271;SDS011;39160;48.580;7.756;2024-02-21T20:06:02;2.83;;;2.08;;
53271;SDS011;39160;48.580;7.756;2024-02-21T20:10:53;4.22;;;1.90;;
53271;SDS011;39160;48.580;7.756;2024-02-21T20:15:44;4.75;;;1.80;;
53271;SDS011;39160;48.580;7.756;2024-02-21T20:20:35;4.03;;;1.88;;
53271;SDS011;39160;48.580;7.756;2024-02-21T20:25:26;4.90;;;2.70;;
53271;SDS011;39160;48.580;7.756;2024-02-21T20:30:17;3.70;;;1.98;;
53271;SDS011;39160;48.580;7.756;2024-02-21T20:35:08;5.18;;;2.13;;
53271;SDS011;39160;48.580;7.756;2024-02-21T20:40:00;3.85;;;2.45;;
53271;SDS011;39160;48.580;7.756;2024-02-21T20:49:49;4.10;;;1.92;;
53271;SDS011;39160;48.580;7.756;2024-02-21T20:54:43;4.32;;;1.70;;
53271;SDS011;39160;48.580;7.756;2024-02-21T20:59:36;4.38;;;2.25;;
53271;SDS011;39160;48.580;7.756;2024-02-21T21:04:27;2.60;;;1.95;;
53271;SDS011;39160;48.580;7.756;2024-02-21T21:09:18;2.65;;;1.63;;
53271;SDS011;39160;48.580;7.756;2024-02-21T21:14:10;1.55;;;1.02;;
53271;SDS011;39160;48.580;7.756;2024-02-21T21:19:00;3.83;;;1.85;;
53271;SDS011;39160;48.580;7.756;2024-02-21T21:23:51;2.90;;;1.63;;
53271;SDS011;39160;48.580;7.756;2024-02-21T21:28:42;2.92;;;1.67;;
53271;SDS011;39160;48.580;7.756;2024-02-21T21:33:32;3.05;;;1.63;;
53271;SDS011;39160;48.580;7.756;2024-02-21T21:38:23;3.03;;;1.80;;
53271;SDS011;39160;48.580;7.756;2024-02-21T21:43:14;2.35;;;1.63;;
53271;SDS011;39160;48.580;7.756;2024-02-21T21:48:06;4.05;;;2.22;;
53271;SDS011;39160;48.580;7.756;2024-02-21T21:52:57;2.67;;;1.45;;
53271;SDS011;39160;48.580;7.756;2024-02-21T21:57:49;4.00;;;1.67;;
53271;SDS011;39160;48.580;7.756;2024-02-21T22:02:42;3.80;;;1.65;;
53271;SDS011;39160;48.580;7.756;2024-02-21T22:07:37;6.63;;;2.57;;
53271;SDS011;39160;48.580;7.756;2024-02-21T22:12:27;1.65;;;1.20;;
53271;SDS011;39160;48.580;7.756;2024-02-21T22:17:18;3.55;;;1.60;;
53271;SDS011;39160;48.580;7.756;2024-02-21T22:22:12;3.85;;;1.30;;
53271;SDS011;39160;48.580;7.756;2024-02-21T22:27:03;1.60;;;1.20;;
53271;SDS011;39160;48.580;7.756;2024-02-21T22:31:58;2.35;;;1.10;;
53271;SDS011;39160;48.580;7.756;2024-02-21T22:36:51;3.75;;;1.38;;
53271;SDS011;39160;48.580;7.756;2024-02-21T22:41:42;3.40;;;1.75;;
53271;SDS011;39160;48.580;7.756;2024-02-21T22:46:35;2.30;;;1.52;;
53271;SDS011;39160;48.580;7.756;2024-02-21T22:51:32;1.80;;;0.90;;
53271;SDS011;39160;48.580;7.756;2024-02-21T22:56:27;1.65;;;0.98;;
53271;SDS011;39160;48.580;7.756;2024-02-21T23:01:18;4.82;;;1.27;;
53271;SDS011;39160;48.580;7.756;2024-02-21T23:06:12;1.90;;;1.13;;
53271;SDS011;39160;48.580;7.756;2024-02-21T23:11:03;1.65;;;0.73;;
53271;SDS011;39160;48.580;7.756;2024-02-21T23:16:17;1.17;;;0.95;;
53271;SDS011;39160;48.580;7.756;2024-02-21T23:21:11;0.47;;;0.47;;
53271;SDS011;39160;48.580;7.756;2024-02-21T23:26:02;1.13;;;0.60;;
53271;SDS011;39160;48.580;7.756;2024-02-21T23:30:55;2.22;;;0.90;;
53271;SDS011;39160;48.580;7.756;2024-02-21T23:35:48;0.73;;;0.50;;
53271;SDS011;39160;48.580;7.756;2024-02-21T23:40:47;2.83;;;0.50;;
53271;SDS011;39160;48.580;7.756;2024-02-21T23:45:38;0.60;;;0.43;;
53271;SDS011;39160;48.580;7.756;2024-02-21T23:50:28;0.35;;;0.32;;
53271;SDS011;39160;48.580;7.756;2024-02-21T23:55:19;0.60;;;0.50;;
